Time;durP1;ratioP1;P1;durP2;ratioP2;P2;SDS_P1;SDS_P2;PMS_P1;PMS_P2;Temp;Humidity;BMP_temperature;BMP_pressure;BME280_temperature;BME280_humidity;BME280_pressure;Samples;Min_cycle;Max_cycle;Signal;HPM_P1;HPM_P2
2023/09/01 00:01:26;;;;;;;2.50;1.48;;;;;;;24.99;44.71;100338.16;5113911;28;20450;-71
2023/09/01 00:03:55;;;;;;;2.65;1.50;;;;;;;24.97;44.96;100346.53;5113455;28;20410;-70
2023/09/01 00:06:23;;;;;;;2.92;1.35;;;;;;;24.98;44.62;100348.22;5113598;28;20043;-71
2023/09/01 00:08:51;;;;;;;3.95;1.70;;;;;;;24.97;44.79;100346.53;5113703;28;20052;-71
2023/09/01 00:11:20;;;;;;;2.20;1.38;;;;;;;24.97;44.70;100346.53;5112129;28;20570;-70
2023/09/01 00:13:49;;;;;;;2.20;1.48;;;;;;;24.96;45.04;100339.38;5113213;28;20500;-69
2023/09/01 00:16:17;;;;;;;2.75;1.40;;;;;;;24.94;45.15;100338.72;5113332;28;20065;-70
2023/09/01 00:18:48;;;;;;;2.45;1.50;;;;;;;24.95;44.97;100351.31;5113083;28;20059;-71
2023/09/01 00:21:17;;;;;;;2.38;1.50;;;;;;;24.93;44.68;100345.19;5113129;28;20044;-71
2023/09/01 00:23:45;;;;;;;2.45;1.38;;;;;;;24.94;45.00;100346.91;5113219;28;20039;-70
2023/09/01 00:26:13;;;;;;;2.90;1.73;;;;;;;24.93;44.86;100350.66;5113360;28;20134;-71
2023/09/01 00:28:41;;;;;;;2.67;1.60;;;;;;;24.93;44.88;100350.66;5113535;28;20048;-69
2023/09/01 00:31:09;;;;;;;2.83;1.60;;;;;;;24.92;44.78;100354.44;5113074;28;20043;-71
2023/09/01 00:33:38;;;;;;;3.13;1.52;;;;;;;24.91;44.90;100358.19;5112892;28;20044;-70
2023/09/01 00:36:07;;;;;;;3.40;1.60;;;;;;;24.91;44.71;100355.47;5112900;28;20134;-71
2023/09/01 00:38:35;;;;;;;3.00;1.60;;;;;;;24.91;44.89;100354.59;5112665;28;20043;-71
2023/09/01 00:41:07;;;;;;;3.13;1.50;;;;;;;24.89;44.81;100351.19;5112897;28;20051;-70
2023/09/01 00:43:36;;;;;;;2.53;1.40;;;;;;;24.90;45.00;100355.63;5112710;28;20513;-70
2023/09/01 00:46:04;;;;;;;2.80;1.60;;;;;;;24.87;44.87;100356.00;5112527;28;20047;-69
2023/09/01 00:48:32;;;;;;;2.38;1.40;;;;;;;24.87;44.82;100359.56;5112554;28;20119;-70
2023/09/01 00:51:01;;;;;;;2.60;1.60;;;;;;;24.88;44.74;100361.25;5112543;28;20047;-69
2023/09/01 00:53:31;;;;;;;1.98;1.35;;;;;;;24.88;45.07;100354.94;5112373;28;20066;-70
2023/09/01 00:55:59;;;;;;;2.75;1.30;;;;;;;24.87;45.08;100364.16;5112135;28;20087;-70
2023/09/01 00:58:27;;;;;;;2.78;1.60;;;;;;;24.86;45.15;100357.88;5112553;28;20048;-70
2023/09/01 01:00:58;;;;;;;2.92;1.65;;;;;;;24.84;44.83;100360.78;5111993;28;20439;-70
2023/09/01 01:03:28;;;;;;;2.90;1.55;;;;;;;24.85;44.82;100356.19;5112337;28;20074;-71
2023/09/01 01:06:11;;;;;;;2.50;1.50;;;;;;;24.84;44.73;100357.22;5111993;28;20606;-70
2023/09/01 01:08:51;;;;;;;1.88;1.30;;;;;;;24.82;44.85;100354.66;5111894;28;20058;-70
2023/09/01 01:11:27;;;;;;;2.50;1.40;;;;;;;24.82;45.14;100362.00;5111729;28;20181;-70
2023/09/01 01:14:01;;;;;;;3.30;1.67;;;;;;;24.80;45.07;100362.19;5112267;28;20122;-71
2023/09/01 01:16:31;;;;;;;2.15;1.20;;;;;;;24.80;45.07;100366.78;5112168;28;20039;-72
2023/09/01 01:19:03;;;;;;;2.95;1.52;;;;;;;24.79;45.06;100363.19;5112210;28;20043;-68
2023/09/01 01:21:37;;;;;;;3.03;1.43;;;;;;;24.79;45.08;100360.47;5111763;28;20485;-71
2023/09/01 01:24:08;;;;;;;1.92;1.30;;;;;;;24.79;45.03;100365.06;5111951;28;20105;-70
2023/09/01 01:26:37;;;;;;;2.88;1.30;;;;;;;24.78;44.96;100357.94;5111909;28;20131;-69
2023/09/01 01:29:07;;;;;;;2.63;1.58;;;;;;;24.76;45.12;100360.00;5111907;28;20112;-70
2023/09/01 01:31:35;;;;;;;2.50;1.50;;;;;;;24.74;45.09;100362.06;5111802;28;20412;-71
2023/09/01 01:34:11;;;;;;;2.10;1.50;;;;;;;24.76;45.30;100362.72;5112098;28;20047;-70
2023/09/01 01:36:50;;;;;;;3.33;1.60;;;;;;;24.72;45.27;100353.22;5111622;28;20055;-70
2023/09/01 01:39:24;;;;;;;2.72;1.50;;;;;;;24.72;45.12;100353.22;5111939;28;20130;-71
2023/09/01 01:41:56;;;;;;;3.03;1.50;;;;;;;24.73;45.26;100358.47;5112097;28;20062;-71
2023/09/01 01:44:30;;;;;;;2.83;1.50;;;;;;;24.72;45.16;100364.97;5111705;28;20409;-69
2023/09/01 01:46:59;;;;;;;4.65;1.70;;;;;;;24.71;45.05;100351.53;5111519;28;20044;-69
2023/09/01 01:49:28;;;;;;;2.17;1.30;;;;;;;24.70;45.21;100349.78;5111853;28;20400;-69
2023/09/01 01:51:56;;;;;;;2.80;1.40;;;;;;;24.70;44.89;100352.53;5111748;28;20067;-69
2023/09/01 01:54:26;;;;;;;2.30;1.40;;;;;;;24.69;44.93;100361.75;5112028;28;20067;-68
2023/09/01 01:56:54;;;;;;;3.08;1.35;;;;;;;24.69;45.27;100361.75;5111581;28;20477;-69
2023/09/01 01:59:22;;;;;;;1.95;1.35;;;;;;;24.66;45.37;100354.78;5111306;28;20083;-70
2023/09/01 02:01:50;;;;;;;2.90;1.58;;;;;;;24.66;45.15;100367.56;5111443;28;20055;-69
2023/09/01 02:04:18;;;;;;;2.65;1.50;;;;;;;24.64;45.12;100367.75;5111608;28;20130;-70
2023/09/01 02:06:47;;;;;;;2.63;1.50;;;;;;;24.63;45.20;100373.38;5111826;28;20101;-69
2023/09/01 02:09:15;;;;;;;3.67;1.70;;;;;;;24.64;45.33;100384.13;5111325;28;20051;-69
2023/09/01 02:11:44;;;;;;;2.92;1.58;;;;;;;24.62;45.18;100377.16;5111416;28;20067;-69
2023/09/01 02:14:12;;;;;;;2.78;1.50;;;;;;;24.62;45.11;100380.72;5111476;28;20184;-69
2023/09/01 02:16:41;;;;;;;2.63;1.40;;;;;;;24.61;45.37;100389.06;5111695;28;20052;-69
2023/09/01 02:19:11;;;;;;;2.33;1.42;;;;;;;24.61;45.00;100389.06;5111630;28;20058;-69
2023/09/01 02:21:40;;;;;;;2.35;1.45;;;;;;;24.59;45.06;100380.22;5111282;28;20130;-69
2023/09/01 02:24:08;;;;;;;2.45;1.30;;;;;;;24.55;45.16;100377.00;5111244;28;20043;-68
2023/09/01 02:26:36;;;;;;;2.45;1.40;;;;;;;24.56;45.19;100375.97;5111186;28;20048;-70
2023/09/01 02:29:06;;;;;;;2.72;1.30;;;;;;;24.55;45.31;100385.19;5111135;28;20059;-69
2023/09/01 02:31:35;;;;;;;2.35;1.45;;;;;;;24.52;45.23;100374.66;5111249;28;20044;-69
2023/09/01 02:34:04;;;;;;;2.58;1.55;;;;;;;24.55;45.16;100386.03;5111825;28;20131;-68
2023/09/01 02:36:34;;;;;;;2.85;1.58;;;;;;;24.54;45.54;100388.94;5115089;28;20075;-70
2023/09/01 02:39:05;;;;;;;2.83;1.80;;;;;;;24.54;45.37;100388.94;5115009;28;20044;-69
2023/09/01 02:41:33;;;;;;;2.40;1.40;;;;;;;24.52;44.95;100385.56;5114634;28;20559;-69
2023/09/01 02:44:02;;;;;;;2.65;1.45;;;;;;;24.51;45.26;100387.44;5114624;28;20484;-70
2023/09/01 02:46:31;;;;;;;3.15;1.58;;;;;;;24.49;45.31;100386.75;5114657;28;20054;-69
2023/09/01 02:49:00;;;;;;;2.58;1.40;;;;;;;24.51;45.32;100397.47;5114458;28;20124;-70
2023/09/01 02:51:28;;;;;;;2.58;1.50;;;;;;;24.48;45.44;100387.78;5114281;28;20054;-69
2023/09/01 02:53:56;;;;;;;4.03;1.65;;;;;;;24.48;45.27;100390.50;5114592;28;20130;-70
2023/09/01 02:56:24;;;;;;;2.55;1.40;;;;;;;24.46;45.24;100389.84;5114905;28;20051;-70
2023/09/01 02:58:52;;;;;;;2.58;1.35;;;;;;;24.46;45.07;100389.84;5114329;28;20047;-68
2023/09/01 03:01:20;;;;;;;2.22;1.30;;;;;;;24.47;45.47;100388.81;5114585;28;20056;-70
2023/09/01 03:03:50;;;;;;;3.03;1.63;;;;;;;24.44;45.29;100389.16;5114286;28;20134;-69
2023/09/01 03:06:18;;;;;;;3.50;1.70;;;;;;;24.43;45.29;100387.47;5114217;28;20545;-69
2023/09/01 03:08:47;;;;;;;3.15;1.50;;;;;;;24.43;45.24;100383.91;5114385;28;20054;-68
2023/09/01 03:11:15;;;;;;;3.28;1.52;;;;;;;24.41;45.24;100384.06;5113971;28;20055;-69
2023/09/01 03:13:43;;;;;;;2.53;1.40;;;;;;;24.41;45.48;100384.06;5114374;28;20047;-69
2023/09/01 03:16:11;;;;;;;3.90;1.60;;;;;;;24.41;45.52;100384.06;5113953;28;20480;-69
2023/09/01 03:18:39;;;;;;;3.53;1.67;;;;;;;24.40;45.29;100387.81;5113940;28;20089;-69
2023/09/01 03:21:13;;;;;;;3.03;1.50;;;;;;;24.39;45.39;100391.56;5113943;28;20077;-70
2023/09/01 03:23:42;;;;;;;3.20;1.77;;;;;;;24.39;45.51;100393.44;5114193;28;20073;-70
2023/09/01 03:26:13;;;;;;;4.03;1.77;;;;;;;24.37;45.39;100396.34;5096351;28;20075;-70
2023/09/01 03:28:41;;;;;;;3.83;1.63;;;;;;;24.36;45.61;100396.53;5113975;28;20077;-70
2023/09/01 03:31:11;;;;;;;4.78;2.60;;;;;;;24.35;45.48;100395.69;5113711;28;20044;-69
2023/09/01 03:33:39;;;;;;;4.43;2.10;;;;;;;24.34;45.60;100394.00;5113814;28;20048;-70
2023/09/01 03:36:09;;;;;;;3.60;1.90;;;;;;;24.33;45.63;100399.63;5113801;28;20481;-70
2023/09/01 03:38:39;;;;;;;4.30;2.10;;;;;;;24.33;45.55;100403.22;5113543;28;20048;-70
2023/09/01 03:41:07;;;;;;;3.60;1.90;;;;;;;24.30;45.70;100400.78;5113809;28;20052;-70
2023/09/01 03:43:36;;;;;;;3.42;2.10;;;;;;;24.32;45.75;100412.41;5113674;28;20048;-70
2023/09/01 03:46:04;;;;;;;3.55;2.00;;;;;;;24.32;45.79;100406.09;5113558;28;20464;-69
2023/09/01 03:48:35;;;;;;;2.83;1.83;;;;;;;24.29;45.62;100407.25;5113233;28;20509;-69
2023/09/01 03:51:08;;;;;;;4.25;1.70;;;;;;;24.30;45.86;100411.69;5113085;28;20079;-70
2023/09/01 03:53:38;;;;;;;6.32;2.30;;;;;;;24.28;45.91;100405.56;5113564;28;20130;-70
2023/09/01 03:56:13;;;;;;;4.20;2.17;;;;;;;24.28;45.73;100411.88;5113319;28;20058;-70
2023/09/01 03:58:42;;;;;;;4.22;2.00;;;;;;;24.19;46.03;100393.00;5113514;28;20176;-70
2023/09/01 04:01:12;;;;;;;4.60;2.10;;;;;;;24.26;45.52;100408.47;5113302;28;20075;-69
2023/09/01 04:03:42;;;;;;;4.30;2.00;;;;;;;24.24;45.81;100404.25;5113215;28;20048;-69
2023/09/01 04:06:11;;;;;;;4.35;2.03;;;;;;;24.23;46.11;100403.38;5113137;28;20048;-68
2023/09/01 04:08:41;;;;;;;4.15;2.28;;;;;;;24.24;45.65;100406.97;5113240;28;20079;-68
2023/09/01 04:11:09;;;;;;;3.63;2.20;;;;;;;24.24;45.94;100409.69;5112594;28;20094;-69
2023/09/01 04:13:38;;;;;;;3.72;2.10;;;;;;;24.22;46.02;100409.00;5093900;28;20070;-68
2023/09/01 04:16:06;;;;;;;4.15;1.98;;;;;;;24.20;45.82;100409.16;5112987;28;20047;-69
2023/09/01 04:18:35;;;;;;;4.10;2.42;;;;;;;24.21;45.67;100410.88;5113213;28;20044;-69
2023/09/01 04:21:03;;;;;;;3.65;2.15;;;;;;;24.20;45.72;100405.59;5112970;28;20047;-70
2023/09/01 04:23:32;;;;;;;4.65;2.10;;;;;;;24.21;46.08;100404.56;5112826;28;20176;-70
2023/09/01 04:26:02;;;;;;;3.42;1.88;;;;;;;24.19;46.00;100403.91;5112934;28;20048;-69
2023/09/01 04:28:31;;;;;;;3.47;2.00;;;;;;;24.19;45.85;100406.63;5112575;28;20050;-69
2023/09/01 04:30:59;;;;;;;4.55;1.90;;;;;;;24.17;45.88;100414.13;5112795;28;20127;-68
2023/09/01 04:33:27;;;;;;;3.95;2.13;;;;;;;24.16;45.83;100418.75;5112764;28;20122;-70
2023/09/01 04:36:00;;;;;;;3.25;1.85;;;;;;;24.16;45.88;100410.56;5112565;28;20105;-70
2023/09/01 04:38:28;;;;;;;3.90;1.88;;;;;;;24.16;46.00;100415.16;5112358;28;20468;-69
2023/09/01 04:40:57;;;;;;;4.20;1.80;;;;;;;24.16;46.05;100428.78;5112466;28;20044;-69
2023/09/01 04:43:28;;;;;;;3.80;1.95;;;;;;;24.16;46.19;100428.78;5112378;28;20048;-70
2023/09/01 04:45:57;;;;;;;3.70;1.98;;;;;;;24.14;46.05;100426.25;5112204;28;20131;-70
2023/09/01 04:48:26;;;;;;;4.10;2.08;;;;;;;24.14;46.10;100417.22;5112047;28;20126;-69
2023/09/01 04:50:55;;;;;;;3.53;1.90;;;;;;;24.14;45.83;100404.44;5092208;28;20044;-69
2023/09/01 04:53:24;;;;;;;4.35;2.10;;;;;;;24.13;46.24;100413.66;5091875;28;20047;-69
2023/09/01 04:55:55;;;;;;;4.57;1.90;;;;;;;24.12;46.10;100421.97;5091843;28;20047;-69
2023/09/01 04:58:23;;;;;;;3.75;2.00;;;;;;;24.12;46.25;100421.97;5091480;28;20067;-69
2023/09/01 05:00:54;;;;;;;3.75;2.00;;;;;;;24.13;46.21;100426.44;5091987;28;20044;-70
2023/09/01 05:03:22;;;;;;;3.78;2.00;;;;;;;24.10;45.98;100418.59;5091301;28;20059;-70
2023/09/01 05:05:51;;;;;;;3.72;2.13;;;;;;;24.11;46.29;100421.13;5091575;28;20075;-69
2023/09/01 05:08:19;;;;;;;4.30;2.30;;;;;;;24.12;46.21;100421.97;5091855;28;20051;-69
2023/09/01 05:10:47;;;;;;;4.05;2.08;;;;;;;24.12;46.34;100427.44;5091399;28;20063;-70
2023/09/01 05:13:15;;;;;;;5.38;2.08;;;;;;;24.11;46.26;100433.91;5091545;28;20134;-70
2023/09/01 05:15:44;;;;;;;3.92;2.03;;;;;;;24.11;46.18;100439.34;5091371;28;20131;-70
2023/09/01 05:18:13;;;;;;;3.75;2.10;;;;;;;24.11;46.31;100431.19;5091273;28;20044;-69
2023/09/01 05:20:43;;;;;;;3.67;1.90;;;;;;;24.09;46.34;100433.22;5091593;28;20058;-68
2023/09/01 05:23:13;;;;;;;4.25;2.05;;;;;;;24.11;46.38;100445.66;5091392;28;20131;-69
2023/09/01 05:25:41;;;;;;;4.15;2.38;;;;;;;24.09;46.37;100438.69;5091283;28;20048;-70
2023/09/01 05:28:10;;;;;;;4.63;2.30;;;;;;;24.07;46.66;100432.56;5091619;28;20044;-68
2023/09/01 05:30:38;;;;;;;4.45;1.98;;;;;;;24.10;46.47;100434.94;5090900;28;20132;-69
2023/09/01 05:33:06;;;;;;;4.53;2.22;;;;;;;24.09;46.47;100433.22;5091477;28;20048;-70
2023/09/01 05:35:36;;;;;;;4.63;2.17;;;;;;;24.09;46.54;100438.69;5091412;28;20150;-70
2023/09/01 05:38:04;;;;;;;3.85;2.10;;;;;;;24.09;46.40;100438.69;5090904;28;20056;-69
2023/09/01 05:40:32;;;;;;;4.10;2.00;;;;;;;24.10;46.79;100446.69;5091209;28;20112;-69
2023/09/01 05:43:00;;;;;;;3.85;2.28;;;;;;;24.09;46.56;100444.97;5091067;28;20048;-70
2023/09/01 05:45:28;;;;;;;4.13;1.90;;;;;;;24.10;46.69;100445.84;5097395;28;20044;-70
2023/09/01 05:47:57;;;;;;;4.32;2.20;;;;;;;24.11;46.84;100447.53;5112446;28;20126;-69
2023/09/01 05:50:25;;;;;;;3.92;2.33;;;;;;;24.10;46.88;100451.28;5112642;28;20048;-68
2023/09/01 05:52:55;;;;;;;3.85;2.20;;;;;;;24.10;46.87;100454.00;5112113;28;20052;-70
2023/09/01 05:55:23;;;;;;;5.00;2.40;;;;;;;24.11;46.94;100461.16;5111337;28;20480;-66
2023/09/01 05:57:51;;;;;;;3.45;1.92;;;;;;;24.10;46.65;100454.00;5111585;28;20078;-70
2023/09/01 06:00:19;;;;;;;4.88;2.35;;;;;;;24.11;47.01;100464.72;5111594;28;20044;-64
2023/09/01 06:02:48;;;;;;;3.70;2.22;;;;;;;24.12;47.00;100468.31;5111161;28;20044;-65
2023/09/01 06:05:16;;;;;;;4.43;1.92;;;;;;;24.12;47.05;100454.66;5111664;28;20113;-65
2023/09/01 06:07:45;;;;;;;5.75;2.35;;;;;;;24.12;47.00;100460.97;5111444;28;20079;-65
2023/09/01 06:10:14;;;;;;;5.00;2.30;;;;;;;24.12;46.90;100460.13;5113193;28;20059;-65
2023/09/01 06:12:43;;;;;;;3.85;2.47;;;;;;;24.11;47.01;100455.69;5115415;28;20086;-66
2023/09/01 06:15:11;;;;;;;3.58;1.90;;;;;;;24.12;47.03;100455.53;5115367;28;20043;-65
2023/09/01 06:17:39;;;;;;;4.93;2.10;;;;;;;24.12;47.31;100462.84;5115347;28;20191;-65
2023/09/01 06:20:14;;;;;;;3.85;2.20;;;;;;;24.11;47.03;100456.56;5113126;28;20044;-64
2023/09/01 06:22:47;;;;;;;4.50;2.17;;;;;;;24.12;47.18;100446.50;5115297;28;20103;-64
2023/09/01 06:25:17;;;;;;;5.22;2.30;;;;;;;24.14;47.16;100449.94;5114597;28;20564;-64
2023/09/01 06:27:45;;;;;;;3.80;2.13;;;;;;;24.12;47.16;100451.94;5114035;28;20385;-64
2023/09/01 06:30:14;;;;;;;4.63;2.22;;;;;;;24.14;47.15;100441.75;5113394;28;20058;-65
2023/09/01 06:32:42;;;;;;;4.10;2.17;;;;;;;24.14;47.44;100436.31;5114583;28;20142;-64
2023/09/01 06:35:11;;;;;;;3.65;2.25;;;;;;;24.15;47.35;100443.44;5114708;28;20050;-65
2023/09/01 06:37:39;;;;;;;4.80;2.47;;;;;;;24.13;47.59;100440.91;5115054;28;20109;-66
2023/09/01 06:40:08;;;;;;;6.43;2.80;;;;;;;24.15;47.33;100435.28;5115116;28;20054;-65
2023/09/01 06:42:38;;;;;;;4.85;2.17;;;;;;;24.16;47.31;100450.59;5114501;28;20069;-65
2023/09/01 06:45:07;;;;;;;4.70;2.30;;;;;;;24.15;47.38;100449.75;5114730;28;20217;-65
2023/09/01 06:47:36;;;;;;;4.57;2.50;;;;;;;24.16;47.36;100461.50;5114328;28;20043;-64
2023/09/01 06:50:04;;;;;;;4.00;2.30;;;;;;;24.15;47.52;100460.66;5114284;28;20052;-63
2023/09/01 06:52:33;;;;;;;4.57;2.15;;;;;;;24.16;47.39;100466.94;5114356;28;20473;-64
2023/09/01 06:55:01;;;;;;;4.05;2.20;;;;;;;24.17;47.22;100468.63;5114398;28;20450;-65
2023/09/01 06:57:29;;;;;;;3.53;2.25;;;;;;;24.16;47.28;100475.97;5114269;28;20088;-65
2023/09/01 06:59:58;;;;;;;4.50;2.45;;;;;;;24.18;47.23;100478.50;5114569;28;20058;-64
2023/09/01 07:02:27;;;;;;;5.05;2.13;;;;;;;24.19;47.22;100485.66;5114262;28;20134;-65
2023/09/01 07:04:55;;;;;;;3.55;2.20;;;;;;;24.18;47.17;100487.53;5114391;28;20049;-65
2023/09/01 07:07:23;;;;;;;4.70;2.28;;;;;;;24.19;47.40;100493.84;5114329;28;20051;-65
2023/09/01 07:09:52;;;;;;;4.68;2.38;;;;;;;24.18;47.28;100486.69;5114276;28;20051;-65
2023/09/01 07:12:20;;;;;;;4.43;2.45;;;;;;;24.19;47.28;100491.09;5114346;28;20043;-65
2023/09/01 07:14:48;;;;;;;4.30;2.33;;;;;;;24.18;47.64;100486.69;5114284;28;20046;-68
2023/09/01 07:17:21;;;;;;;3.47;2.00;;;;;;;24.19;47.32;100485.66;5114401;28;20059;-65
2023/09/01 07:19:49;;;;;;;;;;;;;;;24.20;47.48;100479.19;5114851;28;20075;-65
2023/09/01 07:22:17;;;;;;;4.97;2.17;;;;;;;24.18;47.36;100483.97;5114011;28;19926;-64
2023/09/01 07:24:45;;;;;;;4.25;2.40;;;;;;;24.21;47.38;100498.06;5113925;28;20215;-65
2023/09/01 07:27:14;;;;;;;4.18;2.22;;;;;;;24.21;47.54;100497.22;5113936;28;20378;-64
2023/09/01 07:29:42;;;;;;;3.53;2.00;;;;;;;24.22;47.55;100501.66;5113885;28;20044;-64
2023/09/01 07:32:10;;;;;;;4.85;2.60;;;;;;;24.20;47.18;100492.81;5113914;28;20064;-64
2023/09/01 07:34:40;;;;;;;4.40;2.58;;;;;;;24.23;47.44;100500.66;5113892;28;20101;-64
2023/09/01 07:37:08;;;;;;;4.47;2.28;;;;;;;24.22;47.44;100498.94;5113819;28;20054;-64
2023/09/01 07:39:36;;;;;;;4.28;2.10;;;;;;;24.22;47.34;100502.53;5113630;28;20396;-66
2023/09/01 07:42:07;;;;;;;4.68;2.30;;;;;;;24.23;47.27;100500.66;5095414;28;20484;-64
2023/09/01 07:44:35;;;;;;;3.42;2.30;;;;;;;24.24;47.58;100502.34;5113485;28;20057;-63
2023/09/01 07:47:03;;;;;;;4.13;2.17;;;;;;;24.23;47.45;100490.59;5113817;28;20043;-64
2023/09/01 07:49:32;;;;;;;3.67;2.00;;;;;;;24.25;47.45;100493.16;5113408;28;20058;-64
2023/09/01 07:52:02;;;;;;;3.95;1.95;;;;;;;24.22;47.28;100488.03;5113400;28;20057;-64
2023/09/01 07:54:31;;;;;;;4.65;2.55;;;;;;;24.25;47.66;100490.44;5113291;28;20055;-64
2023/09/01 07:56:59;;;;;;;4.00;2.20;;;;;;;24.26;47.65;100494.84;5113263;28;20055;-64
2023/09/01 07:59:27;;;;;;;4.47;2.30;;;;;;;24.28;47.61;100492.78;5113263;28;20476;-66
2023/09/01 08:01:55;;;;;;;4.07;2.33;;;;;;;24.28;47.64;100498.25;5113230;28;20098;-65
2023/09/01 08:04:23;;;;;;;4.55;2.45;;;;;;;24.30;47.63;100498.06;5113379;28;20047;-64
2023/09/01 08:06:51;;;;;;;3.70;2.20;;;;;;;24.29;47.41;100499.94;5113296;28;20047;-64
2023/09/01 08:09:21;;;;;;;4.03;2.50;;;;;;;24.30;47.36;100507.09;5112827;28;20043;-65
2023/09/01 08:11:49;;;;;;;5.15;2.20;;;;;;;24.31;47.56;100499.75;5113125;28;20051;-65
2023/09/01 08:14:17;;;;;;;3.30;2.05;;;;;;;24.32;47.44;100504.22;5113030;28;20051;-64
2023/09/01 08:16:45;;;;;;;4.25;2.30;;;;;;;24.34;47.42;100504.91;5113067;28;20120;-65
2023/09/01 08:19:13;;;;;;;4.47;2.20;;;;;;;24.34;47.59;100503.03;5112917;28;20483;-65
2023/09/01 08:21:41;;;;;;;4.40;2.33;;;;;;;24.35;47.43;100499.28;5112588;28;20435;-65
2023/09/01 08:24:10;;;;;;;4.40;2.22;;;;;;;24.37;47.71;100508.13;5112577;28;20044;-65
2023/09/01 08:26:39;;;;;;;3.50;2.00;;;;;;;24.38;47.43;100507.09;5112768;28;20048;-65
2023/09/01 08:29:08;;;;;;;5.05;2.50;;;;;;;24.39;47.62;100506.06;5112748;28;20052;-65
2023/09/01 08:31:36;;;;;;;3.97;2.30;;;;;;;24.41;47.85;100508.63;5111932;28;20047;-65
2023/09/01 08:34:10;;;;;;;4.00;2.30;;;;;;;24.41;47.66;100509.47;5112260;28;20421;-65
2023/09/01 08:36:39;;;;;;;3.92;2.22;;;;;;;24.42;47.81;100505.75;5112479;28;20530;-65
2023/09/01 08:39:08;;;;;;;3.45;2.08;;;;;;;24.42;47.61;100494.84;5112661;28;20504;-65
2023/09/01 08:41:37;;;;;;;4.57;2.15;;;;;;;24.44;47.69;100498.22;5112470;28;20078;-64
2023/09/01 08:44:13;;;;;;;4.32;2.20;;;;;;;24.44;47.52;100498.22;5112556;28;20048;-65
2023/09/01 08:46:41;;;;;;;2.90;1.95;;;;;;;24.45;47.34;100497.19;5112485;28;20044;-66
2023/09/01 08:49:10;;;;;;;3.80;2.10;;;;;;;24.45;47.48;100499.06;5112367;28;20047;-64
2023/09/01 08:51:41;;;;;;;3.80;2.20;;;;;;;24.47;47.39;100505.19;5112368;28;20100;-64
2023/09/01 08:54:10;;;;;;;3.80;2.03;;;;;;;24.48;47.78;100515.06;5112900;28;20576;-65
2023/09/01 08:56:38;;;;;;;3.35;2.00;;;;;;;24.47;47.49;100508.78;5112897;28;20466;-64
2023/09/01 08:59:06;;;;;;;4.97;2.40;;;;;;;24.49;47.58;100512.16;5112836;28;20136;-64
2023/09/01 09:01:37;;;;;;;3.30;2.08;;;;;;;24.48;47.45;100507.75;5112681;28;20340;-65
2023/09/01 09:04:05;;;;;;;3.60;2.00;;;;;;;24.49;47.77;100500.41;5112436;28;20055;-64
2023/09/01 09:06:34;;;;;;;4.38;2.17;;;;;;;24.51;47.68;100506.53;5112607;28;20410;-66
2023/09/01 09:09:11;;;;;;;4.00;2.10;;;;;;;24.51;47.51;100496.50;5112365;28;20047;-64
2023/09/01 09:11:39;;;;;;;3.50;1.95;;;;;;;24.53;47.60;100501.78;5112398;28;20058;-65
2023/09/01 09:14:08;;;;;;;3.95;1.90;;;;;;;24.52;47.39;100495.47;5111958;28;20110;-65
2023/09/01 09:16:52;;;;;;;3.45;2.00;;;;;;;24.55;47.52;100500.56;5112400;28;20054;-64
2023/09/01 09:19:21;;;;;;;3.28;1.98;;;;;;;24.55;47.59;100495.09;5112189;28;20048;-65
2023/09/01 09:21:50;;;;;;;3.08;1.80;;;;;;;24.58;47.73;100487.59;5112053;28;20048;-64
2023/09/01 09:24:36;;;;;;;3.80;2.13;;;;;;;24.58;47.93;100488.44;5111872;28;20050;-64
2023/09/01 09:27:05;;;;;;;3.95;1.90;;;;;;;24.62;47.65;100483.50;5094420;28;20047;-64
2023/09/01 09:29:41;;;;;;;4.20;2.13;;;;;;;24.63;47.58;100490.66;5112013;28;20044;-64
2023/09/01 09:32:22;;;;;;;4.07;2.15;;;;;;;24.64;47.53;100486.91;5111920;28;20138;-64
2023/09/01 09:35:07;;;;;;;3.10;1.80;;;;;;;24.65;47.66;100488.59;5111909;28;20043;-65
2023/09/01 09:37:36;;;;;;;3.10;1.80;;;;;;;24.66;47.53;100495.75;5112005;28;20051;-64
2023/09/01 09:40:12;;;;;;;3.03;1.90;;;;;;;24.67;47.65;100497.44;5111606;28;20044;-64
2023/09/01 09:42:41;;;;;;;4.00;1.90;;;;;;;24.66;47.58;100491.13;5111562;28;20105;-65
2023/09/01 09:45:26;;;;;;;3.55;1.90;;;;;;;24.70;47.70;100494.34;5115708;28;20484;-66
2023/09/01 09:47:58;;;;;;;3.50;1.90;;;;;;;24.73;47.43;100491.28;5115792;28;20044;-64
2023/09/01 09:50:27;;;;;;;4.30;2.00;;;;;;;24.72;47.86;100479.53;5115860;28;20048;-65
2023/09/01 09:52:59;;;;;;;3.95;1.77;;;;;;;24.74;47.75;100487.53;5115898;28;20527;-66
2023/09/01 09:55:29;;;;;;;3.38;1.92;;;;;;;24.76;47.54;100480.84;5115932;28;20049;-66
2023/09/01 09:58:07;;;;;;;4.10;2.20;;;;;;;24.79;47.45;100479.66;5115459;28;20039;-66
2023/09/01 10:00:41;;;;;;;2.92;1.90;;;;;;;24.78;47.63;100478.78;5115742;28;20083;-66
2023/09/01 10:03:10;;;;;;;2.92;1.58;;;;;;;24.81;47.60;100483.06;5115696;28;20052;-65
2023/09/01 10:05:39;;;;;;;4.07;2.10;;;;;;;24.83;47.40;100483.72;5115433;28;20048;-65
2023/09/01 10:08:12;;;;;;;3.60;2.08;;;;;;;24.83;47.45;100486.47;5115333;28;20119;-65
2023/09/01 10:10:42;;;;;;;3.58;1.90;;;;;;;24.86;47.73;100485.25;5114942;28;20059;-65
2023/09/01 10:13:15;;;;;;;3.10;1.80;;;;;;;24.87;47.47;100481.47;5115062;28;20134;-65
2023/09/01 10:15:43;;;;;;;4.23;2.10;;;;;;;24.88;47.74;100484.03;5115485;28;20051;-65
2023/09/01 10:18:13;;;;;;;3.20;1.90;;;;;;;24.91;47.56;100480.97;5115274;28;20272;-65
2023/09/01 10:20:44;;;;;;;3.50;1.88;;;;;;;24.94;47.34;100479.75;5114957;28;20111;-65
2023/09/01 10:23:13;;;;;;;3.83;2.08;;;;;;;24.97;47.48;100482.09;5114880;28;20051;-65
2023/09/01 10:25:41;;;;;;;3.25;1.90;;;;;;;24.97;47.54;100479.38;5115114;28;20051;-65
2023/09/01 10:28:11;;;;;;;3.95;1.73;;;;;;;24.99;47.34;100469.13;5115232;28;20092;-65
2023/09/01 10:30:41;;;;;;;3.00;1.98;;;;;;;25.01;47.67;100469.81;5114663;28;20047;-65
2023/09/01 10:33:11;;;;;;;3.25;1.80;;;;;;;25.05;47.88;100476.63;5114772;28;20051;-65
2023/09/01 10:35:45;;;;;;;2.75;1.75;;;;;;;25.07;47.49;100471.84;5114610;28;20040;-65
2023/09/01 10:38:15;;;;;;;3.83;1.73;;;;;;;25.09;47.66;100469.75;5114426;28;20048;-64
2023/09/01 10:40:45;;;;;;;3.78;2.00;;;;;;;25.12;47.57;100480.34;5114464;28;20051;-64
2023/09/01 10:43:15;;;;;;;3.53;1.73;;;;;;;25.15;47.46;100468.22;5114514;28;20130;-66
2023/09/01 10:46:21;;;;;;;3.92;1.98;;;;;;;25.17;47.57;100457.94;5114305;28;20104;-66
2023/09/01 10:48:51;;;;;;;4.45;1.77;;;;;;;25.18;47.68;100467.84;5114393;28;20044;-66
2023/09/01 10:51:21;;;;;;;4.30;1.98;;;;;;;25.20;47.69;100476.72;5114106;28;20497;-66
2023/09/01 10:53:52;;;;;;;3.85;1.85;;;;;;;25.21;47.72;100467.50;5114044;28;20052;-66
2023/09/01 10:56:20;;;;;;;3.08;1.90;;;;;;;25.21;47.54;100465.59;5113395;28;20405;-65
2023/09/01 10:58:50;;;;;;;3.42;1.98;;;;;;;25.23;47.48;100465.41;5113911;28;20043;-66
2023/09/01 11:01:32;;;;;;;3.53;2.10;;;;;;;25.24;47.31;100462.50;5114020;28;20047;-65
2023/09/01 11:04:29;;;;;;;2.80;1.83;;;;;;;25.27;47.56;100455.81;5113815;28;20051;-65
2023/09/01 11:07:06;;;;;;;3.92;2.00;;;;;;;25.28;47.42;100458.38;5114058;28;20454;-65
2023/09/01 11:09:55;;;;;;;3.25;1.70;;;;;;;25.30;47.60;100455.47;5114049;28;20043;-64
2023/09/01 11:12:32;;;;;;;3.15;1.92;;;;;;;25.30;47.38;100459.06;5113938;28;20405;-65
2023/09/01 11:15:03;;;;;;;3.30;1.98;;;;;;;25.34;47.30;100462.25;5113577;28;20438;-65
2023/09/01 11:17:43;;;;;;;3.50;2.00;;;;;;;25.36;47.18;100454.72;5113485;28;20043;-64
2023/09/01 11:20:18;;;;;;;3.53;2.10;;;;;;;25.37;47.32;100451.81;5113953;28;20125;-65
2023/09/01 11:22:48;;;;;;;3.90;2.08;;;;;;;25.38;47.35;100447.19;5113996;28;20139;-64
2023/09/01 11:25:18;;;;;;;3.63;2.13;;;;;;;25.39;47.51;100451.66;5113809;28;20416;-64
2023/09/01 11:27:47;;;;;;;3.17;1.70;;;;;;;25.39;47.61;100448.94;5113656;28;20052;-66
2023/09/01 11:30:18;;;;;;;4.70;2.28;;;;;;;25.39;47.32;100448.94;5113546;28;20044;-66
2023/09/01 11:32:48;;;;;;;3.20;1.67;;;;;;;25.41;47.17;100452.31;5113632;28;20131;-66
2023/09/01 11:35:27;;;;;;;3.50;2.15;;;;;;;25.40;46.95;100454.19;5113634;28;20083;-64
2023/09/01 11:37:58;;;;;;;3.97;1.70;;;;;;;25.41;47.16;100446.84;5113638;28;20051;-65